Time;durP1;ratioP1;P1;durP2;ratioP2;P2;SDS_P1;SDS_P2;PMS_P1;PMS_P2;Temp;Humidity;BMP_temperature;BMP_pressure;BME280_temperature;BME280_humidity;BME280_pressure;Samples;Min_cycle;Max_cycle;Signal;HPM_P1;HPM_P2
2021/12/29 00:01:04;;;;;;;3.83;1.70;;;7.10;97.30;;;;;;5071106;28;20413;-88
2021/12/29 00:03:32;;;;;;;5.73;1.80;;;7.10;97.30;;;;;;5072391;28;20417;-89
2021/12/29 00:06:00;;;;;;;8.10;1.90;;;7.00;97.30;;;;;;5038257;28;20424;-88
2021/12/29 00:08:33;;;;;;;5.33;2.30;;;7.00;97.30;;;;;;5031065;28;20453;-89
2021/12/29 00:11:01;;;;;;;5.70;1.93;;;7.00;97.30;;;;;;5032825;28;20447;-89
2021/12/29 00:13:32;;;;;;;3.80;1.63;;;7.10;97.30;;;;;;5046876;28;20531;-88
2021/12/29 00:16:01;;;;;;;4.17;1.60;;;7.10;97.30;;;;;;5053324;28;20422;-89
2021/12/29 00:18:31;;;;;;;5.07;1.83;;;7.10;97.30;;;;;;5053212;28;20449;-89
2021/12/29 00:21:00;;;;;;;3.00;1.57;;;7.10;97.30;;;;;;5051799;28;20800;-88
2021/12/29 00:23:31;;;;;;;12.10;4.13;;;7.10;97.30;;;;;;5048698;28;20949;-89
2021/12/29 00:26:01;;;;;;;6.33;1.93;;;7.10;97.30;;;;;;5052536;28;20418;-88
2021/12/29 00:28:32;;;;;;;4.43;1.70;;;7.10;97.30;;;;;;5051915;28;20481;-89
2021/12/29 00:31:02;;;;;;;4.00;1.83;;;7.10;97.30;;;;;;5069596;28;20485;-89
2021/12/29 00:33:30;;;;;;;7.50;2.17;;;7.10;97.30;;;;;;5073271;28;20461;-89
2021/12/29 00:35:58;;;;;;;6.53;2.80;;;7.10;97.30;;;;;;5067786;28;20423;-90
2021/12/29 00:38:23;;;;;;;4.37;1.73;;;7.10;97.30;;;;;;5054405;28;20444;-90
2021/12/29 00:40:51;;;;;;;3.50;1.80;;;7.10;97.30;;;;;;5053794;28;20713;-89
2021/12/29 00:43:19;;;;;;;6.73;2.50;;;7.10;97.30;;;;;;5052856;28;20175;-89
2021/12/29 00:45:44;;;;;;;7.30;1.90;;;7.10;97.30;;;;;;5053396;28;20444;-89
2021/12/29 00:48:14;;;;;;;13.33;2.13;;;7.00;97.30;;;;;;5049752;28;20451;-89
2021/12/29 00:50:42;;;;;;;3.03;1.87;;;7.00;97.30;;;;;;5052598;28;20196;-88
2021/12/29 00:53:13;;;;;;;10.60;3.00;;;7.00;97.30;;;;;;5050973;28;20450;-88
2021/12/29 00:55:40;;;;;;;4.00;2.43;;;7.00;97.30;;;;;;5051901;28;20415;-88
2021/12/29 00:58:11;;;;;;;3.77;1.70;;;7.00;97.30;;;;;;5060889;28;20524;-88
2021/12/29 01:00:42;;;;;;;2.13;1.63;;;7.00;97.30;;;;;;5060662;28;20423;-90
2021/12/29 01:03:13;;;;;;;7.10;1.90;;;7.00;97.30;;;;;;5052175;28;20458;-89
2021/12/29 01:05:43;;;;;;;7.23;2.23;;;6.90;97.30;;;;;;5052403;28;20469;-89
2021/12/29 01:08:10;;;;;;;10.60;2.37;;;6.90;97.30;;;;;;5051765;28;20515;-89
2021/12/29 01:10:41;;;;;;;11.93;2.20;;;6.90;97.30;;;;;;5053201;28;20561;-89
2021/12/29 01:13:09;;;;;;;3.47;1.80;;;6.90;97.30;;;;;;5051417;28;20461;-88
2021/12/29 01:15:57;;;;;;;5.73;2.20;;;6.90;97.30;;;;;;5052251;28;20800;-89
2021/12/29 01:18:22;;;;;;;9.23;2.53;;;6.90;97.30;;;;;;5051320;28;20449;-89
2021/12/29 01:20:50;;;;;;;3.63;2.30;;;6.90;97.30;;;;;;5051812;28;20419;-90
2021/12/29 01:23:16;;;;;;;4.80;2.00;;;6.90;97.30;;;;;;5051125;28;20187;-90
2021/12/29 01:25:41;;;;;;;5.63;2.30;;;6.80;97.30;;;;;;5048393;28;20437;-89
2021/12/29 01:28:07;;;;;;;9.47;2.10;;;6.80;97.30;;;;;;5030761;28;20666;-90
2021/12/29 01:30:32;;;;;;;12.80;2.50;;;6.80;97.30;;;;;;5033135;28;20185;-88
2021/12/29 01:33:02;;;;;;;6.90;2.10;;;6.80;97.30;;;;;;5032017;28;20671;-89
2021/12/29 01:35:30;;;;;;;3.03;1.83;;;6.80;97.30;;;;;;5051550;28;20243;-88
2021/12/29 01:37:55;;;;;;;6.07;2.03;;;6.80;97.30;;;;;;5051559;28;20495;-89
2021/12/29 01:40:22;;;;;;;2.93;1.90;;;6.70;97.30;;;;;;5059862;28;20405;-89
2021/12/29 01:42:47;;;;;;;11.60;2.20;;;6.60;97.30;;;;;;5071532;28;20190;-88
2021/12/29 01:45:13;;;;;;;8.43;2.30;;;6.50;97.30;;;;;;5071099;28;20413;-89
2021/12/29 01:47:39;;;;;;;5.67;2.30;;;6.50;97.30;;;;;;5069841;28;20194;-89
2021/12/29 01:50:08;;;;;;;2.77;2.07;;;6.50;97.30;;;;;;5049194;28;20422;-90
2021/12/29 01:52:38;;;;;;;3.60;2.03;;;6.50;97.30;;;;;;5037303;28;20333;-90
2021/12/29 01:55:09;;;;;;;6.20;2.10;;;6.60;97.30;;;;;;5050927;28;20640;-90
2021/12/29 01:57:35;;;;;;;11.70;3.40;;;6.60;97.30;;;;;;5058058;28;20799;-89
2021/12/29 02:00:03;;;;;;;6.13;2.63;;;6.60;97.30;;;;;;5051771;28;20476;-90
2021/12/29 02:02:28;;;;;;;6.27;2.50;;;6.60;97.30;;;;;;5050979;28;20411;-89
2021/12/29 02:04:54;;;;;;;10.03;2.70;;;6.60;97.30;;;;;;5060823;28;20432;-90
2021/12/29 02:07:21;;;;;;;5.47;2.50;;;6.60;97.30;;;;;;5070931;28;20209;-89
2021/12/29 02:09:47;;;;;;;6.33;2.00;;;6.60;97.30;;;;;;5070650;28;20171;-89
2021/12/29 02:12:13;;;;;;;3.73;1.73;;;6.60;97.30;;;;;;5072241;28;20459;-90
2021/12/29 02:14:39;;;;;;;5.33;2.17;;;6.60;97.30;;;;;;5058550;28;20240;-90
2021/12/29 02:17:06;;;;;;;5.93;2.40;;;6.60;97.30;;;;;;5051179;28;20442;-89
2021/12/29 02:19:32;;;;;;;10.37;2.70;;;6.60;97.30;;;;;;5052178;28;20410;-89
2021/12/29 02:22:07;;;;;;;5.13;2.30;;;6.60;97.30;;;;;;5050698;28;20429;-89
2021/12/29 02:24:42;;;;;;;4.90;1.63;;;6.60;97.30;;;;;;5051387;28;20179;-89
2021/12/29 02:27:11;;;;;;;5.70;1.63;;;6.60;97.30;;;;;;5057215;28;20733;-89
2021/12/29 02:29:38;;;;;;;4.57;1.60;;;6.60;97.30;;;;;;5056131;28;20919;-89
2021/12/29 02:32:04;;;;;;;8.80;2.37;;;6.60;97.30;;;;;;5075213;28;20456;-88
2021/12/29 02:34:30;;;;;;;4.30;2.37;;;6.60;97.30;;;;;;5065984;28;20428;-89
2021/12/29 02:36:58;;;;;;;6.80;2.40;;;6.60;97.30;;;;;;5070066;28;20200;-89
2021/12/29 02:39:24;;;;;;;4.03;1.97;;;6.60;97.30;;;;;;5099171;28;20414;-89
2021/12/29 02:41:54;;;;;;;9.93;2.37;;;6.60;97.30;;;;;;5089891;28;20431;-87
2021/12/29 02:44:26;;;;;;;5.87;1.97;;;6.60;97.30;;;;;;5072833;28;20417;-88
2021/12/29 02:46:53;;;;;;;3.93;1.90;;;6.60;97.30;;;;;;5057877;28;20516;-88
2021/12/29 02:49:18;;;;;;;5.33;3.83;;;6.70;97.30;;;;;;5057464;28;20469;-89
2021/12/29 02:51:44;;;;;;;6.17;1.90;;;6.60;97.30;;;;;;5057147;28;20453;-90
2021/12/29 02:54:10;;;;;;;6.87;1.60;;;6.60;97.30;;;;;;5061275;28;20218;-88
2021/12/29 02:56:36;;;;;;;4.17;2.40;;;6.70;97.30;;;;;;5076960;28;20159;-89
2021/12/29 02:59:02;;;;;;;4.00;1.70;;;6.70;97.30;;;;;;5077310;28;20643;-89
2021/12/29 03:01:32;;;;;;;4.03;1.53;;;6.70;97.30;;;;;;5076868;28;20411;-89
2021/12/29 03:04:12;;;;;;;4.23;1.93;;;6.70;97.30;;;;;;5077369;28;20417;-90
2021/12/29 03:06:38;;;;;;;7.70;1.70;;;6.70;97.30;;;;;;5078026;28;20408;-89
2021/12/29 03:09:05;;;;;;;2.90;1.63;;;6.70;97.30;;;;;;5074338;28;20848;-89
2021/12/29 03:11:31;;;;;;;8.63;1.70;;;6.70;97.30;;;;;;5057310;28;20417;-89
2021/12/29 03:14:04;;;;;;;7.40;1.97;;;6.80;97.30;;;;;;5056311;28;20435;-87
2021/12/29 03:16:32;;;;;;;5.20;1.80;;;6.80;97.30;;;;;;5056893;28;20404;-89
2021/12/29 03:18:57;;;;;;;5.93;1.63;;;6.80;97.30;;;;;;5057575;28;20497;-90
2021/12/29 03:21:23;;;;;;;4.53;1.80;;;6.80;97.30;;;;;;5061311;28;20907;-89
2021/12/29 03:23:51;;;;;;;7.50;1.80;;;6.80;97.30;;;;;;5078034;28;20226;-90
2021/12/29 03:26:17;;;;;;;8.43;3.03;;;6.80;97.30;;;;;;5077265;28;20225;-90
2021/12/29 03:28:43;;;;;;;4.80;2.03;;;6.80;97.30;;;;;;5077817;28;20521;-88
2021/12/29 03:31:14;;;;;;;4.77;1.57;;;6.80;97.30;;;;;;5077621;28;20284;-89
2021/12/29 03:33:43;;;;;;;5.00;1.87;;;6.80;97.30;;;;;;5077533;28;20468;-89
2021/12/29 03:36:10;;;;;;;7.37;2.30;;;6.80;97.30;;;;;;5077417;28;20420;-89
2021/12/29 03:38:42;;;;;;;6.67;2.23;;;6.80;97.30;;;;;;5076392;28;20432;-89
2021/12/29 03:41:13;;;;;;;5.70;2.00;;;6.70;97.30;;;;;;5060955;28;20452;-90
2021/12/29 03:43:43;;;;;;;9.67;1.90;;;6.70;97.30;;;;;;5073776;28;20433;-89
2021/12/29 03:46:13;;;;;;;4.03;1.90;;;6.70;97.30;;;;;;5082727;28;20451;-90
2021/12/29 03:48:41;;;;;;;6.30;3.50;;;6.70;97.30;;;;;;5076594;28;20432;-88
2021/12/29 03:51:07;;;;;;;9.50;2.17;;;6.70;97.30;;;;;;5087991;28;20499;-89
2021/12/29 03:53:33;;;;;;;4.63;2.30;;;6.70;97.30;;;;;;5076253;28;20464;-90
2021/12/29 03:56:02;;;;;;;7.37;2.10;;;6.70;97.30;;;;;;5076287;28;20409;-89
2021/12/29 03:58:28;;;;;;;7.10;2.00;;;6.70;97.30;;;;;;5075810;28;20900;-88
2021/12/29 04:00:57;;;;;;;8.53;1.70;;;6.70;97.30;;;;;;5093657;28;20797;-89
2021/12/29 04:03:23;;;;;;;2.63;1.53;;;6.70;97.30;;;;;;5076306;28;20461;-88
2021/12/29 04:05:49;;;;;;;6.27;2.10;;;6.70;97.30;;;;;;5076305;28;20448;-90
2021/12/29 04:08:15;;;;;;;12.30;2.77;;;6.70;97.30;;;;;;5075936;28;20665;-89
2021/12/29 04:10:43;;;;;;;5.80;2.10;;;6.70;97.30;;;;;;5056796;28;20179;-87
2021/12/29 04:13:11;;;;;;;3.43;2.00;;;6.70;97.30;;;;;;5056729;28;20457;-89
2021/12/29 04:15:38;;;;;;;5.33;2.20;;;6.70;97.30;;;;;;5055909;28;20422;-90
2021/12/29 04:18:14;;;;;;;4.87;2.30;;;6.70;97.30;;;;;;5075808;28;20449;-90
2021/12/29 04:20:57;;;;;;;16.23;2.97;;;6.70;97.30;;;;;;5074588;28;20444;-90
2021/12/29 04:23:25;;;;;;;7.53;2.90;;;6.70;97.30;;;;;;5093587;28;20412;-90
2021/12/29 04:25:54;;;;;;;7.03;2.23;;;6.70;97.30;;;;;;5076082;28;20452;-89
2021/12/29 04:28:23;;;;;;;5.73;2.47;;;6.70;97.30;;;;;;5070076;28;20471;-89
2021/12/29 04:30:50;;;;;;;11.13;2.97;;;6.70;97.30;;;;;;5073923;28;20431;-89
2021/12/29 04:33:17;;;;;;;4.40;1.90;;;6.70;97.30;;;;;;5094190;28;20992;-88
2021/12/29 04:35:44;;;;;;;6.30;3.87;;;6.70;97.30;;;;;;5091197;28;21003;-89
2021/12/29 04:38:10;;;;;;;7.80;2.70;;;6.70;97.30;;;;;;5092177;28;20503;-88
2021/12/29 04:40:36;;;;;;;9.47;2.77;;;6.70;97.30;;;;;;5091624;28;20503;-90
2021/12/29 04:43:02;;;;;;;6.10;2.20;;;6.70;97.30;;;;;;5074642;28;20425;-89
2021/12/29 04:45:35;;;;;;;5.77;2.40;;;6.70;97.30;;;;;;5074699;28;20273;-90
2021/12/29 04:48:01;;;;;;;6.87;3.10;;;6.70;97.30;;;;;;5074197;28;20451;-90
2021/12/29 04:50:30;;;;;;;8.50;2.70;;;6.70;97.30;;;;;;5074555;28;20413;-89
2021/12/29 04:53:00;;;;;;;5.60;2.27;;;6.70;97.30;;;;;;5074615;28;21031;-90
2021/12/29 04:55:28;;;;;;;7.60;2.73;;;6.70;97.30;;;;;;5092020;28;20408;-89
2021/12/29 04:57:55;;;;;;;8.43;2.63;;;6.70;97.30;;;;;;5074553;28;20437;-88
2021/12/29 05:00:24;;;;;;;3.60;2.63;;;6.60;97.30;;;;;;5074076;28;20746;-88
2021/12/29 05:02:51;;;;;;;6.93;3.30;;;6.60;97.30;;;;;;5074117;28;20423;-88
2021/12/29 05:05:28;;;;;;;7.40;3.10;;;6.60;97.30;;;;;;5073160;28;20438;-89
2021/12/29 05:10:37;;;;;;;4.30;2.10;;;6.60;97.30;;;;;;5069658;28;20428;-90
2021/12/29 05:13:03;;;;;;;7.53;2.40;;;6.60;97.30;;;;;;5053553;28;20465;-88
2021/12/29 05:15:31;;;;;;;4.57;2.33;;;6.60;97.30;;;;;;5054391;28;20167;-87
2021/12/29 05:18:00;;;;;;;5.80;2.67;;;6.60;97.30;;;;;;5054356;28;20191;-89
2021/12/29 05:20:27;;;;;;;7.20;2.60;;;6.60;97.30;;;;;;5071893;28;20412;-88
2021/12/29 05:22:53;;;;;;;4.53;2.00;;;6.60;97.30;;;;;;5054588;28;20409;-89
2021/12/29 05:25:19;;;;;;;4.60;2.23;;;6.60;97.30;;;;;;5074144;28;20477;-88
2021/12/29 05:27:44;;;;;;;8.43;2.57;;;6.60;97.30;;;;;;5094207;28;20459;-90
2021/12/29 05:30:11;;;;;;;8.53;2.30;;;6.50;97.30;;;;;;5092919;28;20575;-90
2021/12/29 05:32:36;;;;;;;5.70;2.33;;;6.50;97.30;;;;;;5093731;28;20255;-88
2021/12/29 05:35:02;;;;;;;3.53;1.80;;;6.40;97.30;;;;;;5094770;28;20415;-88
2021/12/29 05:37:31;;;;;;;9.80;3.97;;;6.40;97.30;;;;;;5077904;28;20276;-89
2021/12/29 05:40:01;;;;;;;4.40;2.40;;;6.30;97.30;;;;;;5061432;28;20424;-87
2021/12/29 05:42:29;;;;;;;2.73;2.00;;;6.30;97.30;;;;;;5072590;28;20477;-87
2021/12/29 05:44:55;;;;;;;6.70;3.00;;;6.30;97.30;;;;;;5064257;28;20413;-90
2021/12/29 05:47:23;;;;;;;7.57;2.40;;;6.20;97.30;;;;;;5061075;28;20459;-89
2021/12/29 05:49:51;;;;;;;7.30;2.30;;;6.20;97.30;;;;;;5070912;28;20347;-88
2021/12/29 05:52:21;;;;;;;7.13;2.90;;;6.20;97.30;;;;;;5060852;28;20457;-88
2021/12/29 05:54:52;;;;;;;5.70;2.40;;;6.20;97.30;;;;;;5055548;28;20426;-87
2021/12/29 05:57:18;;;;;;;6.67;3.13;;;6.20;97.30;;;;;;5055399;28;20435;-88
2021/12/29 05:59:44;;;;;;;5.20;2.80;;;6.20;97.30;;;;;;5060864;28;20632;-89
2021/12/29 06:02:09;;;;;;;6.73;3.10;;;6.20;97.30;;;;;;5064151;28;20189;-90
2021/12/29 06:04:35;;;;;;;5.40;2.63;;;6.20;97.30;;;;;;5055342;28;20314;-88
2021/12/29 06:07:03;;;;;;;9.30;2.90;;;6.20;97.30;;;;;;5062426;28;20689;-89
2021/12/29 06:09:30;;;;;;;13.27;3.20;;;6.20;97.30;;;;;;5061433;28;20179;-88
2021/12/29 06:12:04;;;;;;;5.80;2.73;;;6.20;97.30;;;;;;5081831;28;20461;-89
2021/12/29 06:14:30;;;;;;;4.83;2.50;;;6.30;97.30;;;;;;5061993;28;20421;-88
2021/12/29 06:16:55;;;;;;;5.47;3.97;;;6.30;97.30;;;;;;5057314;28;20498;-89
2021/12/29 06:19:21;;;;;;;7.63;2.10;;;6.30;97.30;;;;;;5058614;28;20429;-89
2021/12/29 06:21:47;;;;;;;9.97;2.90;;;6.30;97.30;;;;;;5074548;28;20198;-89
2021/12/29 06:24:13;;;;;;;9.60;3.90;;;6.30;97.30;;;;;;5059007;28;20484;-87
2021/12/29 06:26:41;;;;;;;10.77;4.07;;;6.30;97.30;;;;;;5064070;28;20450;-88
2021/12/29 06:29:14;;;;;;;11.33;3.07;;;6.30;97.30;;;;;;5072245;28;20472;-89
2021/12/29 06:31:42;;;;;;;4.87;2.67;;;6.30;97.30;;;;;;5058523;28;20514;-89
2021/12/29 06:34:10;;;;;;;5.60;3.50;;;6.30;97.30;;;;;;5071221;28;20415;-89
2021/12/29 06:36:40;;;;;;;6.33;2.50;;;6.30;97.30;;;;;;5061411;28;20416;-90
2021/12/29 06:39:06;;;;;;;7.80;2.60;;;6.30;97.30;;;;;;5062597;28;20447;-90
2021/12/29 06:41:31;;;;;;;7.13;3.43;;;6.30;97.30;;;;;;5067074;28;20915;-90
2021/12/29 06:43:59;;;;;;;6.23;3.07;;;6.30;97.30;;;;;;5062635;28;20179;-89
2021/12/29 06:46:25;;;;;;;8.47;2.40;;;6.40;97.30;;;;;;5067369;28;20183;-89
2021/12/29 06:48:53;;;;;;;8.93;3.20;;;6.40;97.30;;;;;;5062908;28;20995;-86
2021/12/29 06:51:21;;;;;;;8.73;2.80;;;6.40;97.30;;;;;;5062981;28;20592;-89
2021/12/29 06:53:52;;;;;;;7.17;3.13;;;6.40;97.30;;;;;;5071696;28;20468;-90
2021/12/29 06:56:32;;;;;;;5.60;2.80;;;6.40;97.30;;;;;;5057937;28;20413;-86
2021/12/29 06:59:02;;;;;;;6.10;2.27;;;6.40;97.30;;;;;;5071880;28;20444;-89
2021/12/29 07:04:14;;;;;;;5.70;2.73;;;6.40;97.30;;;;;;5074957;28;20428;-88
2021/12/29 07:06:41;;;;;;;2.90;2.03;;;6.40;97.30;;;;;;5062344;28;20427;-88
2021/12/29 07:09:14;;;;;;;4.60;2.30;;;6.40;97.30;;;;;;5061143;28;20678;-90
2021/12/29 07:11:43;;;;;;;13.23;3.53;;;6.40;97.30;;;;;;5061975;28;20488;-88
2021/12/29 07:14:11;;;;;;;6.53;2.03;;;6.40;97.30;;;;;;5073544;28;20465;-89
2021/12/29 07:16:43;;;;;;;3.90;2.70;;;6.40;97.30;;;;;;5064582;28;20418;-90
2021/12/29 07:19:25;;;;;;;6.00;2.40;;;6.40;97.30;;;;;;5072190;28;20421;-90
2021/12/29 07:21:53;;;;;;;5.03;3.03;;;6.40;97.30;;;;;;5079587;28;20415;-90
2021/12/29 07:24:24;;;;;;;5.63;2.10;;;6.40;97.30;;;;;;5091703;28;20419;-90
2021/12/29 07:26:55;;;;;;;5.67;3.40;;;6.40;97.30;;;;;;5099209;28;20472;-90
2021/12/29 07:29:23;;;;;;;5.93;2.43;;;6.40;97.30;;;;;;5060426;28;20953;-89
2021/12/29 07:31:57;;;;;;;14.37;2.50;;;6.40;97.30;;;;;;5059127;28;20846;-89
2021/12/29 07:34:26;;;;;;;4.90;2.43;;;6.40;97.30;;;;;;5068111;28;20436;-89
2021/12/29 07:36:55;;;;;;;11.60;2.87;;;6.40;97.30;;;;;;5061436;28;20460;-89
2021/12/29 07:39:23;;;;;;;6.93;2.73;;;6.40;97.30;;;;;;5060810;28;20432;-89
2021/12/29 07:41:51;;;;;;;4.90;2.40;;;6.40;97.30;;;;;;5071426;28;20441;-89
2021/12/29 07:44:26;;;;;;;6.00;2.77;;;6.40;97.30;;;;;;5082285;28;20519;-89
2021/12/29 07:46:57;;;;;;;7.23;2.90;;;6.40;97.30;;;;;;5069740;28;21250;-90
2021/12/29 07:49:23;;;;;;;4.33;2.70;;;6.50;97.30;;;;;;5079754;28;20405;-89
2021/12/29 07:51:49;;;;;;;5.37;2.63;;;6.50;97.30;;;;;;5061907;28;20422;-89
2021/12/29 07:54:15;;;;;;;3.77;2.70;;;6.50;97.30;;;;;;5086592;28;20421;-89
2021/12/29 07:56:42;;;;;;;4.00;2.77;;;6.50;97.30;;;;;;5068808;28;20451;-89
2021/12/29 07:59:07;;;;;;;6.47;2.53;;;6.50;97.30;;;;;;5077131;28;20547;-89
2021/12/29 08:01:33;;;;;;;4.60;2.50;;;6.60;97.30;;;;;;5060313;28;20432;-90
2021/12/29 08:04:04;;;;;;;4.83;3.10;;;6.60;97.30;;;;;;5070847;28;20199;-88
2021/12/29 08:06:30;;;;;;;10.80;3.50;;;6.60;97.30;;;;;;5072546;28;20182;-88
2021/12/29 08:08:55;;;;;;;5.77;2.93;;;6.60;97.30;;;;;;5075126;28;20512;-90
2021/12/29 08:11:24;;;;;;;6.07;3.27;;;6.70;97.30;;;;;;5065177;28;20190;-88
2021/12/29 08:13:52;;;;;;;7.80;3.77;;;6.70;97.30;;;;;;5086741;28;20224;-88
2021/12/29 08:16:23;;;;;;;7.67;3.80;;;6.70;97.30;;;;;;5080764;28;20417;-89
2021/12/29 08:19:01;;;;;;;8.27;4.00;;;6.70;97.30;;;;;;5079285;28;20444;-90
2021/12/29 08:21:34;;;;;;;6.50;3.60;;;6.70;97.30;;;;;;5079436;28;20424;-89
2021/12/29 08:24:03;;;;;;;6.07;3.57;;;6.70;97.30;;;;;;5067519;28;20931;-89
2021/12/29 08:26:31;;;;;;;7.93;3.53;;;6.70;97.30;;;;;;5057504;28;20440;-89
2021/12/29 08:29:04;;;;;;;9.43;3.90;;;6.70;97.30;;;;;;5065985;28;20456;-89
2021/12/29 08:31:33;;;;;;;20.87;5.70;;;6.70;97.30;;;;;;5067321;28;20806;-89
2021/12/29 08:34:04;;;;;;;11.27;5.70;;;6.70;97.30;;;;;;5057279;28;20483;-90
2021/12/29 08:36:32;;;;;;;10.30;4.27;;;6.80;97.30;;;;;;5065148;28;20435;-91
2021/12/29 08:39:05;;;;;;;10.80;4.93;;;6.80;97.30;;;;;;5099651;28;20404;-88
2021/12/29 08:41:33;;;;;;;12.10;5.90;;;6.80;97.30;;;;;;5080166;28;20427;-89
2021/12/29 08:44:01;;;;;;;12.47;4.23;;;6.80;97.30;;;;;;5057833;28;20952;-90
2021/12/29 08:46:31;;;;;;;9.50;4.10;;;6.80;97.30;;;;;;5070689;28;20443;-90
2021/12/29 08:49:02;;;;;;;10.10;4.30;;;6.80;97.30;;;;;;5071707;28;20430;-90
2021/12/29 08:51:35;;;;;;;12.13;4.50;;;6.80;97.30;;;;;;5076329;28;20435;-90
2021/12/29 08:54:03;;;;;;;7.70;3.83;;;6.90;97.30;;;;;;5073720;28;20435;-87
2021/12/29 08:56:32;;;;;;;8.53;4.50;;;6.90;97.30;;;;;;5069286;28;20570;-87
2021/12/29 08:59:02;;;;;;;9.13;4.70;;;6.90;97.30;;;;;;5077612;28;20479;-91
2021/12/29 09:01:28;;;;;;;10.43;5.23;;;6.90;97.30;;;;;;5076842;28;20459;-87
2021/12/29 09:03:54;;;;;;;9.13;4.60;;;7.00;97.30;;;;;;5077837;28;20946;-88
2021/12/29 09:06:22;;;;;;;8.87;4.73;;;7.00;97.30;;;;;;5070204;28;20487;-89
2021/12/29 09:08:48;;;;;;;9.80;4.53;;;7.00;97.30;;;;;;5059585;28;20191;-88
2021/12/29 09:11:14;;;;;;;11.80;4.53;;;7.00;97.30;;;;;;5068773;28;20550;-89
2021/12/29 09:13:41;;;;;;;9.27;4.63;;;7.10;97.30;;;;;;5063758;28;20464;-87
2021/12/29 09:16:16;;;;;;;10.30;4.20;;;7.10;97.30;;;;;;5064048;28;20441;-89
2021/12/29 09:18:44;;;;;;;6.83;3.83;;;7.10;97.30;;;;;;5064263;28;20448;-88
2021/12/29 09:21:15;;;;;;;7.50;3.97;;;7.10;97.30;;;;;;5063435;28;20421;-88
2021/12/29 09:23:42;;;;;;;10.33;4.70;;;7.20;97.30;;;;;;5065154;28;20878;-89
2021/12/29 09:26:13;;;;;;;6.13;3.77;;;7.20;97.30;;;;;;5056776;28;20429;-88
2021/12/29 09:28:42;;;;;;;7.63;3.60;;;7.20;97.30;;;;;;5061094;28;20464;-88
2021/12/29 09:31:09;;;;;;;6.50;3.50;;;7.20;97.30;;;;;;5062683;28;20597;-89
2021/12/29 09:33:34;;;;;;;6.93;3.63;;;7.20;97.30;;;;;;5067204;28;21009;-88
2021/12/29 09:36:03;;;;;;;9.80;4.40;;;7.20;97.30;;;;;;5072979;28;20447;-89
2021/12/29 09:38:35;;;;;;;8.17;3.67;;;7.30;97.30;;;;;;5064587;28;20708;-87
2021/12/29 09:41:05;;;;;;;7.67;3.93;;;7.30;97.30;;;;;;5075625;28;20948;-89
2021/12/29 09:43:34;;;;;;;9.10;3.80;;;7.30;97.30;;;;;;5066581;28;20429;-90
2021/12/29 09:46:00;;;;;;;8.60;4.03;;;7.30;97.30;;;;;;5065244;28;20460;-88
2021/12/29 09:48:26;;;;;;;9.17;4.50;;;7.30;97.30;;;;;;5056612;28;20441;-89
2021/12/29 09:51:00;;;;;;;6.17;3.70;;;7.30;97.30;;;;;;5062142;28;21323;-88
2021/12/29 09:53:25;;;;;;;8.10;4.40;;;7.30;97.30;;;;;;5064556;28;20515;-88
2021/12/29 09:55:54;;;;;;;7.13;4.00;;;7.30;97.30;;;;;;5064828;28;20425;-88
2021/12/29 09:58:22;;;;;;;8.50;4.77;;;7.30;97.30;;;;;;5076907;28;20695;-89
2021/12/29 10:00:56;;;;;;;11.40;5.33;;;7.30;97.30;;;;;;5062584;28;20501;-88
2021/12/29 10:03:23;;;;;;;9.70;4.50;;;7.30;97.30;;;;;;5076544;28;20428;-86
2021/12/29 10:05:56;;;;;;;12.30;5.33;;;7.30;97.30;;;;;;5062224;28;20619;-88
2021/12/29 10:08:49;;;;;;;12.87;5.27;;;7.30;97.30;;;;;;5069511;28;20437;-89
2021/12/29 10:11:36;;;;;;;8.80;4.90;;;7.30;97.30;;;;;;5084782;28;20921;-87
2021/12/29 10:14:15;;;;;;;12.60;5.67;;;7.30;97.30;;;;;;5069370;28;20426;-88
2021/12/29 10:16:47;;;;;;;15.20;5.50;;;7.40;97.30;;;;;;5058857;28;20416;-87
2021/12/29 10:19:14;;;;;;;10.07;5.57;;;7.40;97.30;;;;;;5057687;28;20463;-89
2021/12/29 10:21:45;;;;;;;8.97;5.10;;;7.40;97.30;;;;;;5058608;28;20405;-89
2021/12/29 10:24:13;;;;;;;12.13;4.77;;;7.40;97.30;;;;;;5077053;28;20413;-89
2021/12/29 10:26:43;;;;;;;9.40;4.97;;;7.40;97.30;;;;;;5078398;28;20407;-90
2021/12/29 10:29:14;;;;;;;12.30;4.97;;;7.40;97.30;;;;;;5077705;28;20505;-88
2021/12/29 10:31:47;;;;;;;13.90;5.73;;;7.40;97.30;;;;;;5078225;28;20411;-89
2021/12/29 10:34:22;;;;;;;11.37;4.90;;;7.50;97.30;;;;;;5076443;28;20954;-90
2021/12/29 10:36:52;;;;;;;8.80;3.90;;;7.50;97.30;;;;;;5083939;28;20411;-88
2021/12/29 10:39:23;;;;;;;13.40;4.80;;;7.50;97.30;;;;;;5097636;28;20419;-89
2021/12/29 10:42:09;;;;;;;8.40;3.83;;;7.50;97.30;;;;;;5097695;28;20406;-90
2021/12/29 10:44:43;;;;;;;10.40;5.27;;;7.50;97.30;;;;;;5080165;28;20425;-88
2021/12/29 10:47:24;;;;;;;24.93;9.50;;;7.50;97.30;;;;;;5077239;28;20456;-89
2021/12/29 10:49:54;;;;;;;9.87;4.07;;;7.60;97.30;;;;;;5073871;28;20424;-89
2021/12/29 10:52:42;;;;;;;10.53;4.43;;;7.60;97.30;;;;;;5058824;28;20540;-88
2021/12/29 10:55:31;;;;;;;14.27;4.90;;;7.60;97.30;;;;;;5074640;28;20593;-88
2021/12/29 10:58:06;;;;;;;7.30;4.57;;;7.60;97.30;;;;;;5076920;28;20436;-89
2021/12/29 11:00:32;;;;;;;6.17;3.50;;;7.70;97.30;;;;;;5079777;28;20414;-87
2021/12/29 11:03:11;;;;;;;9.03;3.50;;;7.70;97.30;;;;;;5079784;28;20423;-87
2021/12/29 11:05:40;;;;;;;9.10;3.87;;;7.70;97.30;;;;;;5080909;28;20440;-88
2021/12/29 11:08:10;;;;;;;7.87;4.30;;;7.70;97.30;;;;;;5080142;28;20429;-88
2021/12/29 11:10:39;;;;;;;10.13;3.70;;;7.70;97.30;;;;;;5079824;28;20416;-88
2021/12/29 11:13:05;;;;;;;9.20;3.87;;;7.70;97.30;;;;;;5080039;28;20452;-87
2021/12/29 11:15:39;;;;;;;9.10;3.73;;;7.80;97.30;;;;;;5080391;28;20511;-88
2021/12/29 11:18:10;;;;;;;9.20;4.00;;;7.80;97.30;;;;;;5080611;28;20443;-88
2021/12/29 11:20:39;;;;;;;7.53;4.07;;;7.70;97.30;;;;;;5080687;28;20432;-89
2021/12/29 11:23:14;;;;;;;9.33;4.83;;;7.80;97.30;;;;;;5080744;28;20507;-88
2021/12/29 11:25:43;;;;;;;13.10;5.17;;;7.80;97.30;;;;;;5063088;28;20496;-89
2021/12/29 11:28:30;;;;;;;13.00;5.10;;;7.80;97.30;;;;;;5059156;28;20508;-88
2021/12/29 11:31:00;;;;;;;7.83;4.23;;;7.80;97.30;;;;;;5060617;28;20421;-88
2021/12/29 11:33:33;;;;;;;8.23;3.53;;;7.80;97.30;;;;;;5063416;28;20462;-86
2021/12/29 11:35:59;;;;;;;10.07;4.80;;;7.90;97.30;;;;;;5059664;28;20405;-87
2021/12/29 11:38:25;;;;;;;9.10;4.60;;;7.90;97.30;;;;;;5099017;28;20432;-87
2021/12/29 11:41:00;;;;;;;8.20;3.80;;;7.90;97.30;;;;;;5117627;28;20495;-88
2021/12/29 11:43:26;;;;;;;9.37;4.23;;;7.90;97.30;;;;;;5094090;28;20408;-85
2021/12/29 11:45:55;;;;;;;8.10;4.20;;;7.90;97.30;;;;;;5098388;28;20408;-87
2021/12/29 11:48:23;;;;;;;7.93;4.60;;;7.90;97.30;;;;;;5080118;28;20440;-87
2021/12/29 11:51:00;;;;;;;9.50;4.07;;;7.90;97.30;;;;;;5080775;28;20919;-90
2021/12/29 11:53:32;;;;;;;8.17;4.90;;;7.90;97.30;;;;;;5080405;28;20479;-87
2021/12/29 11:56:08;;;;;;;9.70;4.23;;;8.00;97.30;;;;;;5079688;28;20420;-87
2021/12/29 11:58:42;;;;;;;11.80;5.73;;;8.00;97.30;;;;;;5065624;28;20468;-89
2021/12/29 12:01:18;;;;;;;7.97;4.30;;;8.00;97.30;;;;;;5059633;28;20425;-87
2021/12/29 12:04:02;;;;;;;9.63;5.40;;;8.00;97.30;;;;;;5060974;28;20413;-89
2021/12/29 12:06:30;;;;;;;8.60;4.60;;;8.00;97.30;;;;;;5070056;28;20451;-90
2021/12/29 12:09:14;;;;;;;10.70;4.07;;;8.10;97.30;;;;;;5067054;28;20989;-88
2021/12/29 12:11:49;;;;;;;7.83;4.70;;;8.10;97.30;;;;;;5066065;28;20436;-90
2021/12/29 12:14:20;;;;;;;8.70;4.93;;;8.20;97.30;;;;;;5070734;28;20484;-87
2021/12/29 12:16:53;;;;;;;11.53;4.83;;;8.20;97.30;;;;;;5063210;28;20441;-87
2021/12/29 12:19:23;;;;;;;17.13;7.30;;;8.20;97.30;;;;;;5063815;28;20429;-89
2021/12/29 12:22:03;;;;;;;8.70;5.00;;;8.20;97.30;;;;;;5075767;28;20477;-89
2021/12/29 12:24:32;;;;;;;17.37;7.77;;;8.30;97.30;;;;;;5076859;28;20456;-87
2021/12/29 12:27:15;;;;;;;17.40;7.77;;;8.30;97.30;;;;;;5076916;28;20978;-86
2021/12/29 12:29:45;;;;;;;16.37;7.60;;;8.30;97.30;;;;;;5070705;28;20434;-85
2021/12/29 12:32:17;;;;;;;13.43;6.83;;;8.40;97.30;;;;;;5076681;28;20489;-86
2021/12/29 12:35:05;;;;;;;15.30;7.00;;;8.40;97.30;;;;;;5079416;28;20531;-87
2021/12/29 12:37:37;;;;;;;15.57;7.00;;;8.40;97.30;;;;;;5076615;28;20452;-87
2021/12/29 12:40:26;;;;;;;14.70;7.13;;;8.40;97.30;;;;;;5070202;28;20413;-86
2021/12/29 12:43:14;;;;;;;16.30;6.97;;;8.50;97.30;;;;;;5083981;28;20428;-88
2021/12/29 12:45:55;;;;;;;20.93;9.03;;;8.50;97.30;;;;;;5076926;28;20423;-86
2021/12/29 12:48:52;;;;;;;20.43;7.80;;;8.60;97.30;;;;;;5065292;28;20437;-87
2021/12/29 12:51:22;;;;;;;16.97;8.03;;;8.60;97.30;;;;;;5058281;28;20440;-86
2021/12/29 12:53:57;;;;;;;14.67;6.70;;;8.80;97.30;;;;;;5072328;28;20646;-87
2021/12/29 12:56:23;;;;;;;14.30;6.57;;;8.80;97.30;;;;;;5065390;28;20427;-89
2021/12/29 12:58:55;;;;;;;14.37;7.67;;;8.80;97.30;;;;;;5072767;28;20432;-88
2021/12/29 13:01:24;;;;;;;11.90;6.70;;;8.80;97.30;;;;;;5069752;28;20478;-86
2021/12/29 13:04:02;;;;;;;15.63;7.13;;;8.90;97.30;;;;;;5076248;28;20424;-86
2021/12/29 13:06:32;;;;;;;15.63;7.53;;;9.30;97.30;;;;;;5079444;28;20428;-89
2021/12/29 13:09:02;;;;;;;13.60;6.13;;;9.40;97.30;;;;;;5087298;28;20499;-88
2021/12/29 13:11:32;;;;;;;12.67;6.97;;;9.30;97.30;;;;;;5073780;28;20433;-89
2021/12/29 13:14:09;;;;;;;12.87;5.87;;;9.20;97.30;;;;;;5080545;28;21043;-91